Time;durP1;ratioP1;P1;durP2;ratioP2;P2;SDS_P1;SDS_P2;PMS_P1;PMS_P2;Temp;Humidity;BMP_temperature;BMP_pressure;BME280_temperature;BME280_humidity;BME280_pressure;Samples;Min_cycle;Max_cycle;Signal;HPM_P1;HPM_P2
2022/02/09 00:06:41;;;;;;;15.73;6.07;;;9.20;99.90;;;;;;5032277;28;20065;-52
2022/02/09 00:09:08;;;;;;;17.98;6.70;;;9.30;99.90;;;;;;5031953;28;20067;-51
2022/02/09 00:11:42;;;;;;;11.63;6.30;;;9.20;99.90;;;;;;5031691;28;20069;-52
2022/02/09 00:19:36;;;;;;;12.25;6.00;;;9.30;99.90;;;;;;5011601;28;20104;-52
2022/02/09 00:22:21;;;;;;;10.80;5.43;;;9.30;99.90;;;;;;4995288;28;20054;-50
2022/02/09 00:33:09;;;;;;;15.30;5.20;;;9.30;99.90;;;;;;5011606;28;20095;-52
2022/02/09 00:43:34;;;;;;;13.43;4.55;;;9.30;99.90;;;;;;5051024;28;20059;-51
2022/02/09 01:02:40;;;;;;;10.32;3.65;;;9.40;99.90;;;;;;5113321;28;20051;-52
2022/02/09 01:38:01;;;;;;;12.55;3.70;;;9.40;99.90;;;;;;5030502;28;20037;-52
2022/02/09 01:56:33;;;;;;;12.30;3.75;;;9.40;99.90;;;;;;5030263;28;20078;-52
2022/02/09 01:58:59;;;;;;;11.55;3.92;;;9.30;99.90;;;;;;5030031;28;20049;-53
2022/02/09 02:01:26;;;;;;;18.80;3.92;;;9.30;99.90;;;;;;5031805;28;20061;-52
2022/02/09 02:03:52;;;;;;;12.60;3.88;;;9.30;99.90;;;;;;5029801;28;20041;-53
2022/02/09 02:06:19;;;;;;;11.55;3.35;;;9.30;99.90;;;;;;5030107;28;20049;-53
2022/02/09 02:08:46;;;;;;;6.95;3.47;;;9.30;99.90;;;;;;5029860;28;20050;-49
2022/02/09 02:11:24;;;;;;;10.82;3.78;;;9.30;99.90;;;;;;5029921;28;20121;-52
2022/02/09 02:16:40;;;;;;;11.57;3.92;;;9.30;99.90;;;;;;5029540;28;20037;-48
2022/02/09 02:19:33;;;;;;;12.63;3.85;;;9.30;99.90;;;;;;5029371;28;20523;-50
2022/02/09 03:14:56;;;;;;;12.52;5.03;;;9.10;99.90;;;;;;5115440;28;20050;-53
2022/02/09 03:17:31;;;;;;;15.05;6.03;;;9.10;99.90;;;;;;5115769;28;20444;-50
2022/02/09 03:20:06;;;;;;;13.32;4.60;;;9.10;99.90;;;;;;5115501;28;20502;-52
2022/02/09 03:22:50;;;;;;;13.85;5.25;;;9.10;99.90;;;;;;5097300;28;20040;-52
2022/02/09 03:47:14;;;;;;;10.43;5.35;;;8.90;99.90;;;;;;5055205;28;20127;-52
2022/02/09 03:55:08;;;;;;;15.10;5.13;;;8.80;99.90;;;;;;4992822;28;20042;-51
2022/02/09 03:57:45;;;;;;;12.77;4.85;;;8.80;99.90;;;;;;4992569;28;20065;-50
2022/02/09 04:00:19;;;;;;;14.55;5.18;;;8.80;99.90;;;;;;4992963;28;20202;-51
2022/02/09 04:02:52;;;;;;;18.02;5.57;;;8.80;99.90;;;;;;4994648;28;20050;-49
2022/02/09 04:05:18;;;;;;;13.70;5.75;;;8.80;99.90;;;;;;5032075;28;20101;-51
2022/02/09 04:07:44;;;;;;;17.40;5.25;;;8.80;99.90;;;;;;5031657;28;20041;-52
2022/02/09 04:10:16;;;;;;;15.00;5.30;;;8.80;99.90;;;;;;5031576;28;20459;-53
2022/02/09 04:15:26;;;;;;;15.52;5.25;;;8.80;99.90;;;;;;5031508;28;20053;-51
2022/02/09 04:36:48;;;;;;;14.90;5.25;;;8.80;99.90;;;;;;5051049;28;20095;-52
2022/02/09 04:47:24;;;;;;;17.20;5.40;;;8.80;99.90;;;;;;5051002;28;20049;-52
2022/02/09 05:26:23;;;;;;;11.90;4.53;;;8.80;99.90;;;;;;5113145;28;20036;-51
2022/02/09 05:28:49;;;;;;;15.32;4.68;;;8.80;99.90;;;;;;5094824;28;20043;-51
2022/02/09 05:31:14;;;;;;;11.82;3.80;;;8.80;99.90;;;;;;5112669;28;20130;-52
2022/02/09 05:33:41;;;;;;;15.55;4.53;;;8.80;99.90;;;;;;5112968;28;20095;-51
2022/02/09 05:36:07;;;;;;;9.80;4.03;;;8.80;99.90;;;;;;5112964;28;20038;-51
2022/02/09 05:38:32;;;;;;;10.43;4.07;;;8.80;99.90;;;;;;5113110;28;20498;-50
2022/02/09 05:40:58;;;;;;;17.23;4.30;;;8.70;99.90;;;;;;5112772;28;20043;-49
2022/02/09 05:43:26;;;;;;;10.77;4.22;;;8.80;99.90;;;;;;5112535;28;20038;-52
2022/02/09 05:53:24;;;;;;;12.82;4.35;;;8.80;99.90;;;;;;5112668;28;20477;-52
2022/02/09 05:55:54;;;;;;;10.68;3.90;;;8.80;99.90;;;;;;5112523;28;20045;-49
2022/02/09 06:00:47;;;;;;;14.68;3.72;;;8.80;99.90;;;;;;5112318;28;20371;-51
2022/02/09 06:03:14;;;;;;;11.18;4.40;;;8.80;99.90;;;;;;5112324;28;20477;-51
2022/02/09 06:05:40;;;;;;;18.33;5.35;;;8.70;99.90;;;;;;5112450;28;20032;-51
2022/02/09 06:08:06;;;;;;;11.75;4.13;;;8.80;99.90;;;;;;5112075;28;20543;-53
2022/02/09 06:10:33;;;;;;;21.48;4.43;;;8.80;99.90;;;;;;5112283;28;20111;-53
2022/02/09 06:13:19;;;;;;;12.60;4.47;;;8.70;99.90;;;;;;5112199;28;20071;-52
2022/02/09 06:16:08;;;;;;;19.80;4.10;;;8.70;99.90;;;;;;5112580;28;20040;-49
2022/02/09 06:21:20;;;;;;;13.00;3.65;;;8.70;99.90;;;;;;5112091;28;20044;-48
2022/02/09 06:23:47;;;;;;;16.98;3.75;;;8.70;99.90;;;;;;5112167;28;20047;-52
2022/02/09 06:26:13;;;;;;;13.32;3.42;;;8.70;99.90;;;;;;5112220;28;20039;-51
2022/02/09 06:28:38;;;;;;;14.15;3.25;;;8.70;99.90;;;;;;5112093;28;20500;-49
2022/02/09 06:31:04;;;;;;;15.80;3.72;;;8.70;99.90;;;;;;5112038;28;20046;-47
2022/02/09 06:33:30;;;;;;;12.18;3.63;;;8.70;99.90;;;;;;5112243;28;20036;-51
2022/02/09 06:35:58;;;;;;;15.77;3.47;;;8.70;99.90;;;;;;5112345;28;20040;-51
2022/02/09 06:38:24;;;;;;;16.08;3.88;;;8.70;99.90;;;;;;5112405;28;20043;-51
2022/02/09 06:40:55;;;;;;;13.38;3.30;;;8.70;99.90;;;;;;5112377;28;20100;-50
2022/02/09 06:43:21;;;;;;;21.92;4.35;;;8.70;99.90;;;;;;5111914;28;20061;-51
2022/02/09 06:45:47;;;;;;;12.40;3.42;;;8.70;99.90;;;;;;5111992;28;20040;-51
2022/02/09 06:48:14;;;;;;;14.48;3.47;;;8.70;99.90;;;;;;5111681;28;20085;-52
2022/02/09 06:50:45;;;;;;;12.68;3.25;;;8.70;99.90;;;;;;5111844;28;20065;-52
2022/02/09 06:56:03;;;;;;;16.08;4.38;;;8.70;99.90;;;;;;5112040;28;20042;-52
2022/02/09 07:01:00;;;;;;;10.70;3.35;;;8.70;99.90;;;;;;5111725;28;20109;-49
2022/02/09 07:03:25;;;;;;;12.90;4.00;;;8.70;99.90;;;;;;5111988;28;20040;-52
2022/02/09 07:05:51;;;;;;;12.27;3.60;;;8.70;99.90;;;;;;5111918;28;20447;-52
2022/02/09 07:08:17;;;;;;;11.38;3.97;;;8.70;99.90;;;;;;5111837;28;20141;-50
2022/02/09 07:10:42;;;;;;;16.48;3.67;;;8.70;99.90;;;;;;5111643;28;20039;-52
2022/02/09 07:13:08;;;;;;;10.77;3.17;;;8.70;99.90;;;;;;5111819;28;20529;-52
2022/02/09 07:15:40;;;;;;;13.13;4.25;;;8.70;99.90;;;;;;5111653;28;20390;-50
2022/02/09 07:18:12;;;;;;;14.00;3.65;;;8.70;99.90;;;;;;5111979;28;20044;-52
2022/02/09 07:20:55;;;;;;;14.88;3.45;;;8.70;99.90;;;;;;5112919;28;20486;-52
2022/02/09 07:23:31;;;;;;;18.77;3.85;;;8.70;99.90;;;;;;5115091;28;20043;-50
2022/02/09 07:26:07;;;;;;;15.77;4.78;;;8.70;99.90;;;;;;5114981;28;20501;-52
2022/02/09 07:28:34;;;;;;;17.45;3.60;;;8.70;99.90;;;;;;5098985;28;20420;-52
2022/02/09 07:31:01;;;;;;;14.38;3.63;;;8.70;99.90;;;;;;5115160;28;20469;-52
2022/02/09 07:33:28;;;;;;;13.45;3.42;;;8.70;99.90;;;;;;5097371;28;20047;-51
2022/02/09 07:35:54;;;;;;;10.43;4.13;;;8.70;99.90;;;;;;5115600;28;20039;-51
2022/02/09 07:38:19;;;;;;;11.38;3.13;;;8.70;99.90;;;;;;5114927;28;20386;-50
2022/02/09 07:40:45;;;;;;;15.70;4.45;;;8.70;99.90;;;;;;5104280;28;20043;-51
2022/02/09 07:43:19;;;;;;;14.88;3.55;;;8.80;99.90;;;;;;5095352;28;20508;-50
2022/02/09 07:50:49;;;;;;;13.05;3.25;;;8.70;99.90;;;;;;5094458;28;20047;-52
2022/02/09 07:55:46;;;;;;;8.75;2.45;;;8.80;99.90;;;;;;5094180;28;20551;-50
2022/02/09 07:58:12;;;;;;;12.70;3.50;;;8.80;99.90;;;;;;5094641;28;20035;-51
2022/02/09 08:00:38;;;;;;;11.55;2.70;;;8.80;99.90;;;;;;5094414;28;20035;-52
2022/02/09 08:03:04;;;;;;;13.90;3.30;;;8.80;99.90;;;;;;5132288;27;20047;-52
2022/02/09 08:05:32;;;;;;;12.05;3.25;;;8.80;99.90;;;;;;5134885;27;20078;-52
2022/02/09 08:07:58;;;;;;;12.25;3.63;;;8.80;99.90;;;;;;5134861;27;20489;-53
2022/02/09 08:24:07;;;;;;;13.13;3.50;;;8.90;99.90;;;;;;5134556;27;20099;-51
2022/02/09 08:34:28;;;;;;;17.75;4.10;;;9.00;99.90;;;;;;5134385;27;20088;-51
2022/02/09 08:36:56;;;;;;;13.30;4.10;;;9.00;99.90;;;;;;5134757;27;20035;-53
2022/02/09 08:39:22;;;;;;;13.65;3.85;;;8.90;99.90;;;;;;5115839;27;20532;-52
2022/02/09 08:41:48;;;;;;;15.82;3.28;;;8.90;99.90;;;;;;5134353;27;20126;-50
2022/02/09 08:44:14;;;;;;;11.45;3.15;;;8.90;99.90;;;;;;5134457;27;20113;-52
2022/02/09 08:46:42;;;;;;;14.80;3.92;;;8.90;99.90;;;;;;5134105;27;20499;-52
2022/02/09 08:49:11;;;;;;;11.57;4.22;;;8.90;99.90;;;;;;5133987;27;20114;-50
2022/02/09 08:51:38;;;;;;;17.65;3.90;;;8.90;99.90;;;;;;5134366;27;20035;-52
2022/02/09 08:54:04;;;;;;;12.45;3.55;;;8.80;99.90;;;;;;5134266;27;20099;-52
2022/02/09 08:56:30;;;;;;;18.00;3.70;;;8.80;99.90;;;;;;5134058;27;20088;-52
2022/02/09 08:58:59;;;;;;;12.77;3.63;;;8.80;99.90;;;;;;5115499;27;20136;-53
2022/02/09 09:01:36;;;;;;;17.35;3.78;;;8.80;99.90;;;;;;5133698;27;20047;-62
2022/02/09 09:04:12;;;;;;;14.82;3.55;;;8.70;99.90;;;;;;5134180;27;20096;-60
2022/02/09 09:06:41;;;;;;;9.23;3.00;;;8.70;99.90;;;;;;5133947;27;20097;-53
2022/02/09 09:15:26;;;;;;;9.23;2.83;;;8.60;99.90;;;;;;5050269;28;20052;-52
2022/02/09 10:34:02;;;;;;;16.00;3.35;;;9.40;99.90;;;;;;5132831;28;20047;-61
2022/02/09 10:36:29;;;;;;;12.10;3.33;;;9.40;99.90;;;;;;5132566;28;20031;-61
2022/02/09 10:39:11;;;;;;;13.13;3.10;;;9.40;99.90;;;;;;5132808;28;20354;-61
2022/02/09 10:41:49;;;;;;;10.45;3.20;;;9.40;99.90;;;;;;5132588;28;20043;-61
2022/02/09 10:44:20;;;;;;;14.25;2.88;;;9.50;99.90;;;;;;5132239;28;20079;-62
2022/02/09 10:46:57;;;;;;;12.77;3.75;;;9.50;99.90;;;;;;5132473;28;20058;-61
2022/02/09 10:49:29;;;;;;;11.73;2.90;;;9.40;99.90;;;;;;5132177;28;20113;-61
2022/02/09 10:54:25;;;;;;;14.55;3.22;;;9.40;99.90;;;;;;5132161;27;20043;-62
2022/02/09 10:56:52;;;;;;;9.15;2.90;;;9.50;99.90;;;;;;5135543;27;20083;-61
2022/02/09 10:59:22;;;;;;;17.35;3.13;;;9.50;99.90;;;;;;5136250;27;20035;-61
2022/02/09 11:01:49;;;;;;;12.43;2.80;;;9.50;99.90;;;;;;5135874;27;20056;-62
2022/02/09 11:04:16;;;;;;;12.15;3.20;;;9.50;99.90;;;;;;5136162;27;20151;-62
2022/02/09 11:06:43;;;;;;;13.52;2.70;;;9.40;99.90;;;;;;5135957;27;20039;-61
2022/02/09 11:09:12;;;;;;;11.98;3.35;;;9.40;99.90;;;;;;5136134;27;20380;-61
2022/02/09 11:11:40;;;;;;;12.98;3.20;;;9.50;99.90;;;;;;5136098;27;20035;-61
2022/02/09 11:14:11;;;;;;;15.55;3.55;;;9.50;99.90;;;;;;5135907;27;20054;-61
2022/02/09 11:16:37;;;;;;;15.57;3.92;;;9.60;99.90;;;;;;5136073;27;20070;-62
2022/02/09 11:19:03;;;;;;;9.23;2.80;;;9.50;99.90;;;;;;5135610;27;20090;-62
2022/02/09 11:21:36;;;;;;;13.07;2.85;;;9.50;99.90;;;;;;5135917;27;20397;-62
2022/02/09 11:24:25;;;;;;;11.88;3.38;;;9.50;99.90;;;;;;5135845;27;20072;-62
2022/02/09 11:27:11;;;;;;;11.65;2.67;;;9.50;99.90;;;;;;5135535;27;20039;-62
2022/02/09 11:30:00;;;;;;;12.63;3.38;;;9.50;99.90;;;;;;5135424;27;20043;-52
2022/02/09 11:35:22;;;;;;;11.55;2.60;;;9.50;99.90;;;;;;5135627;27;20035;-52
2022/02/09 11:40:37;;;;;;;12.02;2.95;;;9.40;99.90;;;;;;5135803;27;20389;-52
2022/02/09 11:43:58;;;;;;;15.13;3.33;;;9.40;99.90;;;;;;5135388;27;20035;-52
2022/02/09 11:54:58;;;;;;;12.70;2.92;;;9.30;99.90;;;;;;5135086;27;20039;-62
2022/02/09 12:09:50;;;;;;;14.82;3.33;;;9.10;99.90;;;;;;5135011;27;20043;-61
2022/02/09 12:12:23;;;;;;;9.45;2.67;;;9.10;99.90;;;;;;5135057;27;20031;-61
2022/02/09 12:14:58;;;;;;;12.48;3.20;;;9.10;99.90;;;;;;5134821;27;20042;-62
2022/02/09 12:17:49;;;;;;;10.57;3.45;;;9.10;99.90;;;;;;5134981;27;20039;-62
2022/02/09 12:23:03;;;;;;;11.48;2.95;;;9.10;99.90;;;;;;5134885;27;20049;-62
2022/02/09 12:25:48;;;;;;;15.13;3.70;;;9.10;99.90;;;;;;5134676;27;20039;-61
2022/02/09 12:28:18;;;;;;;11.27;2.65;;;9.10;99.90;;;;;;5134621;27;20099;-62
2022/02/09 12:30:48;;;;;;;8.68;2.83;;;9.10;99.90;;;;;;5099061;27;20118;-61
2022/02/09 12:33:24;;;;;;;13.82;2.78;;;9.10;99.90;;;;;;5134304;27;20473;-62
2022/02/09 12:35:51;;;;;;;11.07;2.70;;;9.10;99.90;;;;;;5134370;27;20500;-62
2022/02/09 12:38:30;;;;;;;8.75;2.58;;;9.10;99.90;;;;;;5134315;27;20473;-62
2022/02/09 12:41:10;;;;;;;12.20;2.67;;;9.10;99.90;;;;;;5134406;27;20042;-62
2022/02/09 12:44:02;;;;;;;14.00;2.90;;;9.10;99.90;;;;;;5134145;27;20496;-61
2022/02/09 12:46:31;;;;;;;9.60;2.63;;;9.10;99.90;;;;;;5133369;27;20446;-62
2022/02/09 12:49:12;;;;;;;9.88;2.97;;;9.10;99.90;;;;;;5134023;27;20035;-61
2022/02/09 12:51:40;;;;;;;9.98;2.92;;;9.10;99.90;;;;;;5134054;27;20088;-62
2022/02/09 12:54:07;;;;;;;7.88;2.25;;;9.10;99.90;;;;;;5134109;27;20035;-61
2022/02/09 12:56:41;;;;;;;15.65;3.72;;;9.10;99.90;;;;;;5133909;27;20146;-62
2022/02/09 12:59:25;;;;;;;15.35;3.13;;;9.10;99.90;;;;;;5133712;27;20054;-61
2022/02/09 13:01:52;;;;;;;14.15;3.03;;;9.20;99.90;;;;;;5112044;28;20104;-62
2022/02/09 13:04:38;;;;;;;13.70;3.22;;;9.10;99.90;;;;;;5113408;28;20051;-53
2022/02/09 13:07:13;;;;;;;7.97;2.50;;;9.10;99.90;;;;;;5113195;28;20050;-62
2022/02/09 13:09:50;;;;;;;12.35;2.80;;;9.10;99.90;;;;;;5112960;27;20044;-62
2022/02/09 13:12:27;;;;;;;10.88;2.60;;;9.10;99.90;;;;;;5113377;28;20067;-62
2022/02/09 13:14:59;;;;;;;11.00;3.20;;;9.10;99.90;;;;;;5113012;28;20123;-62
2022/02/09 13:17:54;;;;;;;8.90;2.50;;;9.10;99.90;;;;;;5113017;28;20063;-62
2022/02/09 13:23:40;;;;;;;11.93;2.85;;;9.00;99.90;;;;;;5111676;28;20090;-62
2022/02/09 13:26:37;;;;;;;12.05;3.05;;;9.00;99.90;;;;;;5112753;28;20039;-62
2022/02/09 14:34:09;;;;;;;14.25;4.05;;;8.90;99.90;;;;;;5073482;28;20075;-51
2022/02/09 14:54:36;;;;;;;14.10;4.57;;;8.90;99.90;;;;;;5072921;28;20051;-61
2022/02/09 14:57:17;;;;;;;13.23;4.90;;;8.90;99.90;;;;;;5072874;28;20055;-62
2022/02/09 15:02:15;;;;;;;14.75;5.13;;;8.90;99.90;;;;;;5072590;28;20059;-52
2022/02/09 15:05:13;;;;;;;12.35;4.88;;;8.90;99.90;;;;;;5072887;28;20048;-50
2022/02/09 15:10:03;;;;;;;14.50;5.70;;;9.00;99.90;;;;;;5072499;28;20044;-48
2022/02/09 15:23:02;;;;;;;15.23;4.15;;;8.90;99.90;;;;;;5032719;28;20041;-52
2022/02/09 15:25:33;;;;;;;17.13;3.78;;;8.90;99.90;;;;;;5016365;28;20613;-53
2022/02/09 15:28:01;;;;;;;16.60;3.75;;;9.00;99.90;;;;;;5038923;28;20049;-62
2022/02/09 15:30:29;;;;;;;17.40;4.22;;;9.00;99.90;;;;;;5072307;28;20133;-62
2022/02/09 15:32:57;;;;;;;13.35;4.18;;;8.90;99.90;;;;;;5072203;28;20043;-62
2022/02/09 15:35:36;;;;;;;14.40;3.90;;;8.90;99.90;;;;;;5072261;28;20127;-62
2022/02/09 15:40:41;;;;;;;15.77;4.03;;;8.90;99.90;;;;;;5072079;28;20078;-52
2022/02/09 16:05:37;;;;;;;14.70;3.53;;;8.80;99.90;;;;;;5135268;27;20043;-52
2022/02/09 16:25:07;;;;;;;16.02;4.60;;;8.70;99.90;;;;;;5011551;28;20050;-50
2022/02/09 16:46:24;;;;;;;14.13;3.17;;;8.60;99.90;;;;;;5011208;28;20117;-52
2022/02/09 16:51:25;;;;;;;14.80;4.13;;;8.60;99.90;;;;;;5011237;28;20101;-54
2022/02/09 17:15:37;;;;;;;13.82;4.00;;;8.60;99.90;;;;;;5133447;27;20040;-53
2022/02/09 17:20:48;;;;;;;14.95;4.22;;;8.50;99.90;;;;;;5133580;27;20374;-53
2022/02/09 17:23:14;;;;;;;21.35;5.22;;;8.50;99.90;;;;;;5133506;27;20100;-53
2022/02/09 17:25:40;;;;;;;17.83;4.35;;;8.40;99.90;;;;;;5114585;27;20100;-53
2022/02/09 17:28:09;;;;;;;16.83;5.95;;;8.50;99.90;;;;;;5133235;27;20099;-52
2022/02/09 17:34:04;;;;;;;20.00;4.93;;;8.50;99.90;;;;;;5070137;28;20046;-51
2022/02/09 17:57:53;;;;;;;22.20;4.65;;;8.60;99.90;;;;;;5069529;28;20140;-50
2022/02/09 18:00:19;;;;;;;13.20;3.90;;;8.50;99.90;;;;;;5052641;28;20508;-52
2022/02/09 18:02:50;;;;;;;19.95;4.70;;;8.40;99.90;;;;;;5052636;28;20053;-53
2022/02/09 18:05:53;;;;;;;14.75;3.90;;;8.40;99.90;;;;;;5069013;28;20050;-53
2022/02/09 18:08:19;;;;;;;15.57;4.35;;;8.30;99.90;;;;;;5113947;27;20382;-53
2022/02/09 18:34:44;;;;;;;13.48;4.50;;;8.20;99.90;;;;;;5069209;28;20466;-53
2022/02/09 18:43:03;;;;;;;11.30;4.35;;;8.20;99.90;;;;;;5009315;28;20046;-52
2022/02/09 19:01:35;;;;;;;18.02;5.72;;;8.20;99.90;;;;;;5049093;28;20652;-53
2022/02/09 19:15:17;;;;;;;20.48;7.40;;;8.10;99.90;;;;;;4989641;28;20047;-51
2022/02/09 19:20:44;;;;;;;22.63;8.50;;;8.10;99.90;;;;;;5005773;28;20053;-53
2022/02/09 19:29:11;;;;;;;17.45;7.97;;;8.10;99.90;;;;;;5012557;28;20042;-53
2022/02/09 19:31:42;;;;;;;17.50;7.18;;;8.10;99.90;;;;;;5012485;28;20091;-52
2022/02/09 19:47:24;;;;;;;18.48;7.57;;;8.10;99.90;;;;;;5072245;28;20133;-51
2022/02/09 19:52:52;;;;;;;21.63;8.27;;;8.10;99.90;;;;;;5071807;28;20398;-53
2022/02/09 19:55:23;;;;;;;19.35;7.97;;;8.10;99.90;;;;;;5071745;28;20049;-53
2022/02/09 19:57:51;;;;;;;21.35;8.30;;;8.00;99.90;;;;;;5094444;27;20039;-51
2022/02/09 20:00:20;;;;;;;20.00;8.85;;;8.10;99.90;;;;;;5135423;27;20043;-52
2022/02/09 20:02:47;;;;;;;18.33;9.00;;;8.10;99.90;;;;;;5135102;27;20058;-52
2022/02/09 20:05:15;;;;;;;29.27;11.18;;;8.00;99.90;;;;;;5135082;27;20524;-53
2022/02/09 20:07:41;;;;;;;23.50;10.48;;;8.10;99.90;;;;;;5135101;27;20043;-50
2022/02/09 20:10:07;;;;;;;31.35;10.85;;;8.00;99.90;;;;;;5134911;27;20043;-52
2022/02/09 20:12:33;;;;;;;23.83;11.13;;;8.00;99.90;;;;;;5134784;27;20042;-53
2022/02/09 20:14:58;;;;;;;28.00;11.60;;;8.10;99.90;;;;;;5135055;27;20035;-53
2022/02/09 20:17:24;;;;;;;25.98;12.00;;;8.10;99.90;;;;;;5135012;27;20434;-53
2022/02/09 20:19:56;;;;;;;20.38;11.13;;;8.10;99.90;;;;;;5135176;27;20058;-51
2022/02/09 20:22:21;;;;;;;22.60;11.90;;;8.10;99.90;;;;;;5134826;27;20516;-52
2022/02/09 20:24:47;;;;;;;22.90;11.65;;;8.20;99.90;;;;;;5134547;27;20066;-51
2022/02/09 20:27:17;;;;;;;26.27;11.30;;;8.20;99.90;;;;;;5134422;27;20055;-49
2022/02/09 20:29:43;;;;;;;22.88;13.57;;;8.20;99.90;;;;;;5134737;27;20039;-52
2022/02/09 20:32:18;;;;;;;25.88;14.05;;;8.20;99.90;;;;;;5134781;27;20058;-51
2022/02/09 20:34:52;;;;;;;29.45;14.18;;;8.10;99.90;;;;;;5134583;27;20075;-48
2022/02/09 20:37:19;;;;;;;30.23;14.20;;;8.10;99.90;;;;;;5134483;27;20038;-50
2022/02/09 20:39:57;;;;;;;34.45;14.93;;;8.10;99.90;;;;;;5134356;27;20045;-51
2022/02/09 20:42:23;;;;;;;26.58;13.50;;;8.10;99.90;;;;;;5134347;27;20491;-50
2022/02/09 20:45:00;;;;;;;30.00;15.02;;;8.10;99.90;;;;;;5134257;27;20079;-50
2022/02/09 20:47:29;;;;;;;26.38;14.35;;;8.10;99.90;;;;;;5134301;27;20043;-51
2022/02/09 20:49:54;;;;;;;29.90;15.95;;;8.20;99.90;;;;;;5134246;27;20130;-51
2022/02/09 20:52:20;;;;;;;27.55;15.68;;;8.20;99.90;;;;;;5133986;27;20118;-50
2022/02/09 20:54:46;;;;;;;33.17;16.50;;;8.20;99.90;;;;;;5134225;27;20374;-50
2022/02/09 20:57:11;;;;;;;31.70;16.42;;;8.20;99.90;;;;;;5134246;27;20043;-51
2022/02/09 20:59:43;;;;;;;30.40;15.30;;;8.20;99.90;;;;;;5134144;27;20045;-51
2022/02/09 21:02:50;;;;;;;31.75;16.67;;;8.20;99.90;;;;;;5133796;27;20055;-49
2022/02/09 21:05:24;;;;;;;32.13;16.50;;;8.20;99.90;;;;;;5128914;27;20122;-50
2022/02/09 21:07:59;;;;;;;31.67;16.15;;;8.20;99.90;;;;;;5134104;27;20050;-50
2022/02/09 21:10:46;;;;;;;26.38;15.52;;;8.20;99.90;;;;;;5133643;27;20545;-50
2022/02/09 21:13:24;;;;;;;32.72;15.93;;;8.20;99.90;;;;;;5133860;27;20073;-51
2022/02/09 21:21:21;;;;;;;25.98;15.68;;;8.20;99.90;;;;;;5133654;27;20086;-49
2022/02/09 21:26:45;;;;;;;26.63;16.30;;;8.20;99.90;;;;;;5133736;27;20062;-52
2022/02/09 21:45:55;;;;;;;36.75;16.55;;;8.10;99.90;;;;;;5114330;27;20465;-53
2022/02/09 21:56:48;;;;;;;41.15;19.30;;;8.10;99.90;;;;;;5132969;27;20039;-50
2022/02/09 22:06:11;;;;;;;40.65;18.70;;;8.10;99.90;;;;;;5132718;27;20043;-51
2022/02/09 22:28:53;;;;;;;39.25;18.40;;;8.00;99.90;;;;;;5132615;28;20050;-52
2022/02/09 22:31:35;;;;;;;35.90;18.48;;;8.00;99.90;;;;;;5132546;28;20064;-49
2022/02/09 22:55:19;;;;;;;28.55;15.52;;;7.90;99.90;;;;;;5136424;27;20073;-52
2022/02/09 23:09:41;;;;;;;21.83;12.70;;;7.90;99.90;;;;;;5072639;28;20047;-47
